This is the latest recevied weather packets stored in our database for station/object OE3MNS-13. If no packets are shown the sender has not sent any weather packets the latest 10 day(s).
| Time | Temp. | Humidity | Pressure | Rain* | Wind** | Luminosity | Snow |
|---|---|---|---|---|---|---|---|
| 1778351122 | 16.11° C | 63% | 1016.3 hPa | 1.02 mm | - | 4 W/m² | - |
| 1778350817 | 16.11° C | 62% | 1016.3 hPa | 1.02 mm | - | 6 W/m² | - |
| 1778350220 | 17.22° C | 58% | 1016.4 hPa | 1.02 mm | - | 12 W/m² | - |
| 1778349920 | 17.78° C | 57% | 1016.4 hPa | 1.02 mm | - | 17 W/m² | - |
| 1778349320 | 18.33° C | 54% | 1016.3 hPa | 1.02 mm | - | 22 W/m² | - |
| 1778348720 | 18.89° C | 53% | 1016.3 hPa | 1.02 mm | - | 32 W/m² | - |
| 1778348418 | 18.89° C | 52% | 1016.2 hPa | 1.02 mm | - | 40 W/m² | - |
| 1778347820 | 18.89° C | 50% | 1016.2 hPa | 1.02 mm | - | 59 W/m² | - |
| 1778347518 | 18.89° C | 50% | 1016.2 hPa | 1.02 mm | - | 64 W/m² | - |
| 1778346920 | 18.89° C | 48% | 1016.2 hPa | 1.02 mm | - | 47 W/m² | - |
| 1778346619 | 19.44° C | 48% | 1016.3 hPa | 1.02 mm | - | 52 W/m² | - |
| 1778346318 | 19.44° C | 47% | 1016.3 hPa | 1.02 mm | - | 68 W/m² | - |
| 1778345721 | 19.44° C | 47% | 1016.3 hPa | 1.02 mm | - | 79 W/m² | - |
| 1778345419 | 19.44° C | 46% | 1016 hPa | 1.02 mm | - | 94 W/m² | - |
| 1778345120 | 19.44° C | 44% | 1016.2 hPa | 1.02 mm | - | 116 W/m² | - |
| 1778344521 | 19.44° C | 44% | 1016 hPa | 1.02 mm | - | 124 W/m² | - |
| 1778343920 | 20° C | 44% | 1016.1 hPa | 1.02 mm | - | 204 W/m² | - |
| 1778343317 | 20° C | 43% | 1016.3 hPa | 1.02 mm | - | 240 W/m² | - |
| 1778342722 | 20° C | 43% | 1016.4 hPa | 1.02 mm | - | 245 W/m² | - |
| 1778342417 | 20° C | 44% | 1016.5 hPa | 1.02 mm | - | 253 W/m² | - |
| 1778342117 | 20° C | 44% | 1016.6 hPa | 1.02 mm | - | 263 W/m² | - |
| 1778341816 | 20.56° C | 43% | 1016.7 hPa | 1.02 mm | - | 275 W/m² | - |
| 1778341221 | 21.11° C | 42% | 1016.6 hPa | 1.02 mm | - | 320 W/m² | - |
| 1778340620 | 20.56° C | 43% | 1016.7 hPa | 1.02 mm | - | 395 W/m² | - |
| 1778340021 | 20.56° C | 44% | 1016.8 hPa | 1.02 mm | - | 212 W/m² | - |
* Rain latest hour (hover to see other rain measurements)
** Current wind speed in m/s (hover to see current wind gust speed)